Time;durP1;ratioP1;P1;durP2;ratioP2;P2;SDS_P1;SDS_P2;PMS_P1;PMS_P2;Temp;Humidity;BMP_temperature;BMP_pressure;BME280_temperature;BME280_humidity;BME280_pressure;Samples;Min_cycle;Max_cycle;Signal;HPM_P1;HPM_P2
2023/03/30 00:00:51;;;;;;;46.05;29.95;;;;;;;;;;5056213;28;20107;-72
2023/03/30 00:03:18;;;;;;;43.17;29.17;;;;;;;;;;5065727;28;20104;-73
2023/03/30 00:05:45;;;;;;;56.15;33.70;;;;;;;;;;5055198;28;20025;-73
2023/03/30 00:08:13;;;;;;;47.45;28.90;;;;;;;;;;5054517;28;20021;-71
2023/03/30 00:10:39;;;;;;;48.83;30.17;;;;;;;;;;5054619;28;20108;-72
2023/03/30 00:13:06;;;;;;;42.65;28.15;;;;;;;;;;5054602;28;20017;-71
2023/03/30 00:15:33;;;;;;;47.08;29.45;;;;;;;;;;5054728;28;20051;-71
2023/03/30 00:18:00;;;;;;;53.83;30.00;;;;;;;;;;5053524;28;20029;-72
2023/03/30 00:20:26;;;;;;;46.55;29.77;;;;;;;;;;5053696;28;20070;-72
2023/03/30 00:22:53;;;;;;;47.85;30.73;;;;;;;;;;5053125;28;20027;-71
2023/03/30 00:25:19;;;;;;;48.28;29.20;;;;;;;;;;5053482;28;20025;-71
2023/03/30 00:27:45;;;;;;;49.88;30.13;;;;;;;;;;5053832;28;20013;-71
2023/03/30 00:30:13;;;;;;;47.10;30.27;;;;;;;;;;5053409;28;20437;-71
2023/03/30 00:32:39;;;;;;;49.20;30.35;;;;;;;;;;5053133;28;20028;-72
2023/03/30 00:35:05;;;;;;;45.13;29.90;;;;;;;;;;5053335;28;20367;-72
2023/03/30 00:37:32;;;;;;;45.90;30.02;;;;;;;;;;5053068;28;20040;-71
2023/03/30 00:39:58;;;;;;;48.15;30.88;;;;;;;;;;5053428;28;20250;-71
2023/03/30 00:42:24;;;;;;;51.40;30.25;;;;;;;;;;5052903;28;20108;-71
2023/03/30 00:44:59;;;;;;;44.92;28.88;;;;;;;;;;5053256;28;20026;-71
2023/03/30 00:47:25;;;;;;;47.40;29.67;;;;;;;;;;5053276;28;20032;-71
2023/03/30 00:49:52;;;;;;;48.05;29.25;;;;;;;;;;5053189;28;20017;-72
2023/03/30 00:52:23;;;;;;;48.00;29.70;;;;;;;;;;5052988;28;20546;-71
2023/03/30 00:54:50;;;;;;;39.78;27.75;;;;;;;;;;5053189;28;20068;-72
2023/03/30 00:57:15;;;;;;;46.45;28.23;;;;;;;;;;5052554;28;20078;-73
2023/03/30 00:59:41;;;;;;;45.20;28.50;;;;;;;;;;5052891;28;20037;-72
2023/03/30 01:02:07;;;;;;;46.25;29.27;;;;;;;;;;5052578;28;20108;-72
2023/03/30 01:04:36;;;;;;;45.50;27.17;;;;;;;;;;5054121;28;20056;-72
2023/03/30 01:07:03;;;;;;;38.85;26.45;;;;;;;;;;5071875;28;20032;-71
2023/03/30 01:09:29;;;;;;;43.97;26.60;;;;;;;;;;5073413;28;20032;-71
2023/03/30 01:11:55;;;;;;;40.47;26.75;;;;;;;;;;5070145;28;20048;-72
2023/03/30 01:14:21;;;;;;;43.13;26.63;;;;;;;;;;5065119;28;20036;-70
2023/03/30 01:16:47;;;;;;;45.85;26.60;;;;;;;;;;5075589;28;20036;-71
2023/03/30 01:19:33;;;;;;;42.95;25.55;;;;;;;;;;5053653;28;20178;-71
2023/03/30 01:22:05;;;;;;;36.78;24.02;;;;;;;;;;5052495;28;20056;-72
2023/03/30 01:24:47;;;;;;;39.42;25.48;;;;;;;;;;5052438;28;20044;-72
2023/03/30 01:27:32;;;;;;;41.75;25.58;;;;;;;;;;5052266;28;20057;-71
2023/03/30 01:30:07;;;;;;;39.15;24.52;;;;;;;;;;5052391;28;20383;-71
2023/03/30 01:32:52;;;;;;;39.33;25.02;;;;;;;;;;5052061;28;20240;-72
2023/03/30 01:35:43;;;;;;;41.85;24.23;;;;;;;;;;5052612;28;20029;-71
2023/03/30 01:38:18;;;;;;;39.88;24.73;;;;;;;;;;5053336;28;20560;-74
2023/03/30 01:40:51;;;;;;;39.25;25.73;;;;;;;;;;5071981;28;20040;-71
2023/03/30 01:43:19;;;;;;;42.65;25.73;;;;;;;;;;5068130;28;20044;-72
2023/03/30 01:45:57;;;;;;;43.03;25.55;;;;;;;;;;5053472;28;20020;-71
2023/03/30 01:48:28;;;;;;;36.85;25.13;;;;;;;;;;5059363;28;20036;-72
2023/03/30 01:50:57;;;;;;;39.85;26.10;;;;;;;;;;5052993;28;20056;-72
2023/03/30 01:53:27;;;;;;;39.78;25.25;;;;;;;;;;5052749;28;20029;-74
2023/03/30 01:55:57;;;;;;;38.40;24.75;;;;;;;;;;5052821;28;20113;-73
2023/03/30 01:58:26;;;;;;;42.58;25.15;;;;;;;;;;5057000;28;20079;-72
2023/03/30 02:00:53;;;;;;;45.10;26.38;;;;;;;;;;5072673;28;20072;-75
2023/03/30 02:03:26;;;;;;;41.85;25.08;;;;;;;;;;5072114;28;20074;-72
2023/03/30 02:05:55;;;;;;;42.10;26.87;;;;;;;;;;5072625;28;20047;-72
2023/03/30 02:08:23;;;;;;;46.28;27.27;;;;;;;;;;5072001;28;20020;-72
2023/03/30 02:10:50;;;;;;;42.10;25.40;;;;;;;;;;5072440;28;20545;-72
2023/03/30 02:13:17;;;;;;;44.28;27.70;;;;;;;;;;5072183;28;20390;-72
2023/03/30 02:15:48;;;;;;;42.25;27.23;;;;;;;;;;5072691;28;20035;-76
2023/03/30 02:18:14;;;;;;;46.17;27.48;;;;;;;;;;5071672;28;20029;-71
2023/03/30 02:20:41;;;;;;;46.38;27.13;;;;;;;;;;5071970;28;20023;-72
2023/03/30 02:23:07;;;;;;;46.53;28.23;;;;;;;;;;5071960;28;20021;-73
2023/03/30 02:25:40;;;;;;;43.90;26.98;;;;;;;;;;5072289;28;20020;-72
2023/03/30 02:28:07;;;;;;;46.42;27.92;;;;;;;;;;5071852;28;20489;-72
2023/03/30 02:30:33;;;;;;;43.35;28.33;;;;;;;;;;5072492;28;20032;-72
2023/03/30 02:33:00;;;;;;;44.75;28.83;;;;;;;;;;5071763;28;20115;-71
2023/03/30 02:35:45;;;;;;;53.47;28.67;;;;;;;;;;5071918;28;20482;-72
2023/03/30 02:38:11;;;;;;;;;;;;;;;;;;5072086;28;20063;-72
2023/03/30 02:40:37;;;;;;;43.75;27.08;;;;;;;;;;5071957;28;19911;-71
2023/03/30 02:43:03;;;;;;;48.80;28.92;;;;;;;;;;5071468;28;20051;-71
2023/03/30 02:45:33;;;;;;;46.88;29.55;;;;;;;;;;5071989;28;20022;-72
2023/03/30 02:48:02;;;;;;;49.42;29.42;;;;;;;;;;5071669;28;20482;-73
2023/03/30 02:50:34;;;;;;;53.72;28.92;;;;;;;;;;5072116;28;20036;-72
2023/03/30 02:53:11;;;;;;;43.03;28.27;;;;;;;;;;5071407;28;20031;-74
2023/03/30 02:55:44;;;;;;;46.25;28.50;;;;;;;;;;5073287;28;20020;-73
2023/03/30 02:58:11;;;;;;;53.60;29.23;;;;;;;;;;5071959;28;20069;-71
2023/03/30 03:00:40;;;;;;;47.70;28.90;;;;;;;;;;5071697;28;20099;-72
2023/03/30 03:03:13;;;;;;;48.78;29.38;;;;;;;;;;5071309;28;20029;-72
2023/03/30 03:05:41;;;;;;;44.53;29.15;;;;;;;;;;5071544;28;20048;-70
2023/03/30 03:08:08;;;;;;;48.53;29.00;;;;;;;;;;5071302;28;20492;-72
2023/03/30 03:10:35;;;;;;;48.88;28.33;;;;;;;;;;5071685;28;20109;-72
2023/03/30 03:13:01;;;;;;;46.95;28.35;;;;;;;;;;5070706;28;20043;-71
2023/03/30 03:15:27;;;;;;;50.30;29.65;;;;;;;;;;5071665;28;20033;-71
2023/03/30 03:17:53;;;;;;;49.58;29.95;;;;;;;;;;5071401;28;20099;-71
2023/03/30 03:20:20;;;;;;;49.88;29.42;;;;;;;;;;5071632;28;20129;-72
2023/03/30 03:22:45;;;;;;;43.05;28.35;;;;;;;;;;5070916;28;20485;-70
2023/03/30 03:25:11;;;;;;;45.03;30.10;;;;;;;;;;5071293;28;20036;-72
2023/03/30 03:27:37;;;;;;;45.13;29.27;;;;;;;;;;5072324;28;20377;-72
2023/03/30 03:30:04;;;;;;;53.05;30.33;;;;;;;;;;5072179;28;20038;-71
2023/03/30 03:32:30;;;;;;;47.60;29.35;;;;;;;;;;5074387;28;20027;-72
2023/03/30 03:34:56;;;;;;;48.45;29.92;;;;;;;;;;5075606;28;20029;-71
2023/03/30 03:37:22;;;;;;;52.42;30.55;;;;;;;;;;5075244;28;20029;-72
2023/03/30 03:39:48;;;;;;;50.47;30.25;;;;;;;;;;5075161;28;20497;-72
2023/03/30 03:42:14;;;;;;;48.67;29.40;;;;;;;;;;5075132;28;20100;-72
2023/03/30 03:44:40;;;;;;;51.30;30.27;;;;;;;;;;5075318;28;20032;-72
2023/03/30 03:47:06;;;;;;;51.40;29.73;;;;;;;;;;5075190;28;20033;-71
2023/03/30 03:49:32;;;;;;;47.92;29.00;;;;;;;;;;5075925;28;20099;-71
2023/03/30 03:51:58;;;;;;;45.58;28.05;;;;;;;;;;5077388;28;20538;-73
2023/03/30 03:54:24;;;;;;;51.75;29.98;;;;;;;;;;5076382;28;20033;-73
2023/03/30 03:56:50;;;;;;;45.92;28.40;;;;;;;;;;5074952;28;20029;-72
2023/03/30 03:59:16;;;;;;;48.58;29.30;;;;;;;;;;5074944;28;20334;-71
2023/03/30 04:01:42;;;;;;;48.85;29.20;;;;;;;;;;5074923;28;20025;-71
2023/03/30 04:04:08;;;;;;;49.40;29.10;;;;;;;;;;5075102;28;20528;-70
2023/03/30 04:06:35;;;;;;;51.65;28.60;;;;;;;;;;5075382;28;20111;-72
2023/03/30 04:09:01;;;;;;;52.53;30.67;;;;;;;;;;5074671;28;20029;-75
2023/03/30 04:11:27;;;;;;;46.70;28.15;;;;;;;;;;5075564;28;20379;-74
2023/03/30 04:13:53;;;;;;;49.50;28.05;;;;;;;;;;5075512;28;20052;-72
2023/03/30 04:16:19;;;;;;;45.53;28.10;;;;;;;;;;5076003;28;20067;-72
2023/03/30 04:18:45;;;;;;;49.80;29.23;;;;;;;;;;5074596;28;20031;-71
2023/03/30 04:21:16;;;;;;;45.53;28.08;;;;;;;;;;5074703;28;20383;-72
2023/03/30 04:23:44;;;;;;;49.53;29.60;;;;;;;;;;5074735;28;20020;-72
2023/03/30 04:26:12;;;;;;;54.92;28.42;;;;;;;;;;5075235;28;20023;-74
2023/03/30 04:28:39;;;;;;;53.35;28.20;;;;;;;;;;5074185;28;20089;-73
2023/03/30 04:31:09;;;;;;;47.80;28.30;;;;;;;;;;5074214;28;20595;-72
2023/03/30 04:33:37;;;;;;;51.25;28.70;;;;;;;;;;5074242;28;20440;-73
2023/03/30 04:36:04;;;;;;;47.58;29.50;;;;;;;;;;5076430;28;20100;-73
2023/03/30 04:38:30;;;;;;;45.85;27.23;;;;;;;;;;5075379;28;20217;-73
2023/03/30 04:40:56;;;;;;;46.92;26.25;;;;;;;;;;5076030;28;20062;-74
2023/03/30 04:43:23;;;;;;;54.53;28.08;;;;;;;;;;5075046;28;20024;-73
2023/03/30 04:45:53;;;;;;;47.10;27.40;;;;;;;;;;5067779;28;20470;-77
2023/03/30 04:48:20;;;;;;;45.88;26.50;;;;;;;;;;5065168;28;20552;-79
2023/03/30 04:50:48;;;;;;;41.83;24.98;;;;;;;;;;5067609;28;20051;-73
2023/03/30 04:53:14;;;;;;;54.92;26.02;;;;;;;;;;5068445;28;20086;-72
2023/03/30 04:55:41;;;;;;;50.15;25.77;;;;;;;;;;5064227;28;20040;-73
2023/03/30 04:58:07;;;;;;;44.58;25.00;;;;;;;;;;5051227;28;20028;-73
2023/03/30 05:00:33;;;;;;;43.42;24.30;;;;;;;;;;5075576;28;20051;-71
2023/03/30 05:02:59;;;;;;;44.83;24.45;;;;;;;;;;5075089;28;20013;-75
2023/03/30 05:05:25;;;;;;;39.55;23.35;;;;;;;;;;5080281;28;20086;-73
2023/03/30 05:07:52;;;;;;;40.53;24.00;;;;;;;;;;5081018;28;20486;-75
2023/03/30 05:10:18;;;;;;;37.50;22.10;;;;;;;;;;5080725;28;20021;-74
2023/03/30 05:12:45;;;;;;;39.20;23.38;;;;;;;;;;5076817;28;20032;-73
2023/03/30 05:15:11;;;;;;;45.15;23.00;;;;;;;;;;5074716;28;20082;-73
2023/03/30 05:17:37;;;;;;;35.83;22.17;;;;;;;;;;5074596;28;20029;-73
2023/03/30 05:20:07;;;;;;;41.05;22.33;;;;;;;;;;5073981;28;20335;-72
2023/03/30 05:22:33;;;;;;;33.95;20.30;;;;;;;;;;5073676;28;20020;-73
2023/03/30 05:24:59;;;;;;;34.35;20.92;;;;;;;;;;5073714;28;20032;-75
2023/03/30 05:27:25;;;;;;;35.78;20.58;;;;;;;;;;5064899;28;20029;-75
2023/03/30 05:29:51;;;;;;;34.20;21.20;;;;;;;;;;5070247;28;20124;-77
2023/03/30 05:32:17;;;;;;;38.58;20.00;;;;;;;;;;5053024;28;20086;-74
2023/03/30 05:34:43;;;;;;;35.03;20.02;;;;;;;;;;5065726;28;20059;-73
2023/03/30 05:37:10;;;;;;;36.53;19.40;;;;;;;;;;5066920;28;20029;-76
2023/03/30 05:39:36;;;;;;;41.53;19.80;;;;;;;;;;5068872;28;20021;-74
2023/03/30 05:42:02;;;;;;;28.20;18.17;;;;;;;;;;5067637;28;20025;-74
2023/03/30 05:44:28;;;;;;;43.38;20.13;;;;;;;;;;5070581;28;20025;-73
2023/03/30 05:46:54;;;;;;;33.33;17.75;;;;;;;;;;5041057;28;20085;-73
2023/03/30 05:49:20;;;;;;;36.42;16.02;;;;;;;;;;5062579;28;20326;-73
2023/03/30 05:51:46;;;;;;;35.83;16.98;;;;;;;;;;5069494;28;20029;-74
2023/03/30 05:54:13;;;;;;;23.75;13.93;;;;;;;;;;5069146;28;20024;-75
2023/03/30 05:56:41;;;;;;;31.17;12.60;;;;;;;;;;5068469;28;20033;-73
2023/03/30 05:59:07;;;;;;;31.60;12.45;;;;;;;;;;5071781;28;20025;-74
2023/03/30 06:01:34;;;;;;;29.63;12.30;;;;;;;;;;5068959;28;20536;-74
2023/03/30 06:04:00;;;;;;;32.22;13.98;;;;;;;;;;5066831;28;20359;-74
2023/03/30 06:06:27;;;;;;;30.98;11.90;;;;;;;;;;5061667;28;20032;-75
2023/03/30 06:08:53;;;;;;;25.15;11.77;;;;;;;;;;5068138;28;20108;-73
2023/03/30 06:11:19;;;;;;;22.52;11.75;;;;;;;;;;5062180;28;20025;-72
2023/03/30 06:13:45;;;;;;;25.77;11.02;;;;;;;;;;5053893;28;20028;-71
2023/03/30 06:16:11;;;;;;;17.95;10.82;;;;;;;;;;5052228;28;20095;-72
2023/03/30 06:18:37;;;;;;;25.83;12.40;;;;;;;;;;5052443;28;20060;-73
2023/03/30 06:21:07;;;;;;;28.90;12.93;;;;;;;;;;5052683;28;20025;-69
2023/03/30 06:23:34;;;;;;;26.25;12.00;;;;;;;;;;5052245;28;20118;-71
2023/03/30 06:26:00;;;;;;;22.00;11.82;;;;;;;;;;5035299;28;20083;-74
2023/03/30 06:28:26;;;;;;;24.15;11.88;;;;;;;;;;5053138;28;20418;-73
2023/03/30 06:30:52;;;;;;;29.42;12.52;;;;;;;;;;5034984;28;20104;-72
2023/03/30 06:33:18;;;;;;;24.20;12.38;;;;;;;;;;5053729;28;20025;-75
2023/03/30 06:35:49;;;;;;;27.52;12.48;;;;;;;;;;5052042;28;20033;-73
2023/03/30 06:38:15;;;;;;;26.77;12.43;;;;;;;;;;5051979;28;20375;-72
2023/03/30 06:40:41;;;;;;;30.40;12.13;;;;;;;;;;5052650;28;20029;-76
2023/03/30 06:43:08;;;;;;;24.38;12.07;;;;;;;;;;5051975;28;20096;-74
2023/03/30 06:45:34;;;;;;;22.60;11.55;;;;;;;;;;5052160;28;20389;-73
2023/03/30 06:48:00;;;;;;;23.63;11.30;;;;;;;;;;5052749;28;20028;-72
2023/03/30 06:50:26;;;;;;;27.15;11.23;;;;;;;;;;5051695;28;20031;-73
2023/03/30 06:52:52;;;;;;;29.17;12.73;;;;;;;;;;5051537;28;20104;-73
2023/03/30 06:55:18;;;;;;;24.42;11.18;;;;;;;;;;5050743;28;20459;-72
2023/03/30 06:57:44;;;;;;;25.92;11.32;;;;;;;;;;5050444;28;20033;-71
2023/03/30 07:00:12;;;;;;;26.75;12.52;;;;;;;;;;5051156;28;20027;-75
2023/03/30 07:02:42;;;;;;;24.33;10.77;;;;;;;;;;5050503;28;20025;-74
2023/03/30 07:05:08;;;;;;;28.42;11.73;;;;;;;;;;5050688;28;20482;-73
2023/03/30 07:07:34;;;;;;;23.67;10.50;;;;;;;;;;5050703;28;20040;-75
2023/03/30 07:10:06;;;;;;;26.60;11.95;;;;;;;;;;5050317;28;20032;-71
2023/03/30 07:12:32;;;;;;;27.17;11.77;;;;;;;;;;5049871;28;20032;-71
2023/03/30 07:14:58;;;;;;;23.85;11.40;;;;;;;;;;5050651;28;20060;-73
2023/03/30 07:17:25;;;;;;;24.27;12.18;;;;;;;;;;5050189;28;20454;-72
2023/03/30 07:19:51;;;;;;;25.17;10.05;;;;;;;;;;5050519;28;20036;-73
2023/03/30 07:22:17;;;;;;;22.52;9.93;;;;;;;;;;5050059;28;20488;-71
2023/03/30 07:24:43;;;;;;;19.10;9.15;;;;;;;;;;5051243;28;20025;-74
2023/03/30 07:27:10;;;;;;;17.67;9.25;;;;;;;;;;5051423;28;20037;-75
2023/03/30 07:29:36;;;;;;;22.25;8.77;;;;;;;;;;5050421;28;20372;-74
2023/03/30 07:32:02;;;;;;;20.50;8.60;;;;;;;;;;5049955;28;20104;-76
2023/03/30 07:34:28;;;;;;;23.27;9.25;;;;;;;;;;5050438;28;20074;-74
2023/03/30 07:36:54;;;;;;;20.65;8.38;;;;;;;;;;5050194;28;20039;-74
2023/03/30 07:39:20;;;;;;;21.35;8.63;;;;;;;;;;5050911;28;20025;-74
2023/03/30 07:41:46;;;;;;;15.02;7.88;;;;;;;;;;5050944;28;20025;-73
2023/03/30 07:44:12;;;;;;;22.85;8.30;;;;;;;;;;5050906;28;20021;-71
2023/03/30 07:46:38;;;;;;;22.65;8.02;;;;;;;;;;5050230;28;20071;-71
2023/03/30 07:49:04;;;;;;;19.98;7.97;;;;;;;;;;5050310;28;20107;-72
2023/03/30 07:51:31;;;;;;;28.90;9.63;;;;;;;;;;5050590;28;20018;-71
2023/03/30 07:53:57;;;;;;;29.48;9.55;;;;;;;;;;5049782;28;20025;-72
2023/03/30 07:56:23;;;;;;;17.73;8.40;;;;;;;;;;5050386;28;20029;-72
2023/03/30 07:58:50;;;;;;;24.65;8.88;;;;;;;;;;5065099;28;20041;-72
2023/03/30 08:01:16;;;;;;;17.65;7.90;;;;;;;;;;5071391;28;20090;-72
2023/03/30 08:03:46;;;;;;;19.42;7.97;;;;;;;;;;5071075;28;20037;-71
2023/03/30 08:06:13;;;;;;;18.02;7.80;;;;;;;;;;5071153;28;20048;-71
2023/03/30 08:08:39;;;;;;;18.17;7.72;;;;;;;;;;5062448;28;20102;-71
2023/03/30 08:11:07;;;;;;;19.50;7.15;;;;;;;;;;5057607;28;20021;-73
2023/03/30 08:13:36;;;;;;;17.83;7.35;;;;;;;;;;5050800;28;20071;-72
2023/03/30 08:16:02;;;;;;;18.42;7.63;;;;;;;;;;5051111;28;20433;-73
2023/03/30 08:18:28;;;;;;;17.92;6.93;;;;;;;;;;5053442;28;20025;-71
2023/03/30 08:20:54;;;;;;;13.70;5.80;;;;;;;;;;5054279;28;20082;-71
2023/03/30 08:23:20;;;;;;;17.90;6.90;;;;;;;;;;5054201;28;20025;-73
2023/03/30 08:25:51;;;;;;;17.10;6.32;;;;;;;;;;5054404;28;20032;-72
2023/03/30 08:28:17;;;;;;;18.88;6.60;;;;;;;;;;5054655;28;20037;-72
2023/03/30 08:30:43;;;;;;;15.35;6.00;;;;;;;;;;5054675;28;20056;-71
2023/03/30 08:33:09;;;;;;;17.02;5.95;;;;;;;;;;5054225;28;20599;-71
2023/03/30 08:35:35;;;;;;;11.93;5.07;;;;;;;;;;5054324;28;20083;-71
2023/03/30 08:38:01;;;;;;;18.52;5.63;;;;;;;;;;5054110;28;20414;-71
2023/03/30 08:40:27;;;;;;;14.77;6.22;;;;;;;;;;5054021;28;20095;-73
2023/03/30 08:43:03;;;;;;;16.95;6.15;;;;;;;;;;5053823;28;20432;-72
2023/03/30 08:45:33;;;;;;;20.45;5.65;;;;;;;;;;5054319;28;20506;-73
2023/03/30 08:48:01;;;;;;;18.90;5.50;;;;;;;;;;5053881;28;20033;-73
2023/03/30 08:50:31;;;;;;;19.73;4.95;;;;;;;;;;5054724;28;20027;-72
2023/03/30 08:52:57;;;;;;;16.33;5.75;;;;;;;;;;5054543;28;20025;-72
2023/03/30 08:55:44;;;;;;;13.45;5.68;;;;;;;;;;5055069;28;20482;-71
2023/03/30 08:58:26;;;;;;;15.15;5.35;;;;;;;;;;5054907;28;20028;-73
2023/03/30 09:01:10;;;;;;;13.43;4.75;;;;;;;;;;5053689;28;20557;-73
2023/03/30 09:03:40;;;;;;;17.40;4.72;;;;;;;;;;5061802;28;20031;-73
2023/03/30 09:06:09;;;;;;;16.70;4.60;;;;;;;;;;5055414;28;20025;-72
2023/03/30 09:08:35;;;;;;;11.90;4.32;;;;;;;;;;5073791;28;20393;-74
2023/03/30 09:11:03;;;;;;;13.52;4.68;;;;;;;;;;5073543;28;20546;-73
2023/03/30 09:13:34;;;;;;;11.35;4.65;;;;;;;;;;5073881;28;20039;-73
2023/03/30 09:16:10;;;;;;;16.15;4.63;;;;;;;;;;5073642;28;20521;-73
2023/03/30 09:18:40;;;;;;;16.52;4.70;;;;;;;;;;5073435;28;20028;-72
2023/03/30 09:21:09;;;;;;;13.98;4.85;;;;;;;;;;5073545;28;20044;-72
2023/03/30 09:23:38;;;;;;;12.73;4.32;;;;;;;;;;5073032;28;20017;-72
2023/03/30 09:26:10;;;;;;;17.00;6.90;;;;;;;;;;5073285;28;20544;-71
2023/03/30 09:28:39;;;;;;;19.65;5.28;;;;;;;;;;5073263;28;20032;-72
2023/03/30 09:31:14;;;;;;;17.52;4.90;;;;;;;;;;5073646;28;20090;-72
2023/03/30 09:33:45;;;;;;;15.98;4.90;;;;;;;;;;5055382;28;20489;-74
2023/03/30 09:36:15;;;;;;;14.93;4.45;;;;;;;;;;5075277;28;20394;-74
2023/03/30 09:38:41;;;;;;;13.35;4.20;;;;;;;;;;5073051;28;20024;-75
2023/03/30 09:41:10;;;;;;;14.43;4.35;;;;;;;;;;5073149;28;20103;-76
2023/03/30 09:43:36;;;;;;;12.07;4.47;;;;;;;;;;5073106;28;20100;-76
2023/03/30 09:46:05;;;;;;;19.55;4.90;;;;;;;;;;5072910;28;20017;-72
2023/03/30 09:48:37;;;;;;;14.88;5.00;;;;;;;;;;5072999;28;20550;-72
2023/03/30 09:51:13;;;;;;;18.48;5.13;;;;;;;;;;5072974;28;20054;-73
2023/03/30 09:53:41;;;;;;;12.90;4.93;;;;;;;;;;5072576;28;20056;-74
2023/03/30 09:56:09;;;;;;;18.00;5.80;;;;;;;;;;5073162;28;20048;-73
2023/03/30 09:58:35;;;;;;;19.45;5.45;;;;;;;;;;5072513;28;20027;-72
2023/03/30 10:01:03;;;;;;;14.00;5.13;;;;;;;;;;5072329;28;20025;-73
2023/03/30 10:03:28;;;;;;;19.27;5.18;;;;;;;;;;5072358;28;20031;-73
2023/03/30 10:06:06;;;;;;;13.07;5.75;;;;;;;;;;5072706;28;20032;-72
2023/03/30 10:08:32;;;;;;;11.55;4.90;;;;;;;;;;5072333;28;20121;-73
2023/03/30 10:11:00;;;;;;;13.02;4.68;;;;;;;;;;5072313;28;20060;-72
2023/03/30 10:13:46;;;;;;;12.55;3.88;;;;;;;;;;5072208;28;20108;-71
2023/03/30 10:16:25;;;;;;;16.55;4.63;;;;;;;;;;5072195;28;20130;-71
2023/03/30 10:18:52;;;;;;;15.32;4.35;;;;;;;;;;5072302;28;20032;-70
2023/03/30 10:21:21;;;;;;;12.23;3.83;;;;;;;;;;5072109;28;20025;-73
2023/03/30 10:23:58;;;;;;;15.38;3.65;;;;;;;;;;5071900;28;20101;-72
2023/03/30 10:26:27;;;;;;;11.80;3.60;;;;;;;;;;5072106;28;20031;-71
2023/03/30 10:28:54;;;;;;;23.83;4.07;;;;;;;;;;5072022;28;20029;-73
2023/03/30 10:31:20;;;;;;;13.55;3.45;;;;;;;;;;5072238;28;20043;-73
2023/03/30 10:33:47;;;;;;;21.40;3.53;;;;;;;;;;5072632;28;20118;-73
2023/03/30 10:36:14;;;;;;;17.33;3.70;;;;;;;;;;5072154;28;20082;-73
2023/03/30 10:38:41;;;;;;;15.23;3.20;;;;;;;;;;5071950;28;20166;-72
2023/03/30 10:41:20;;;;;;;13.05;3.25;;;;;;;;;;5071846;28;20430;-74
2023/03/30 10:43:48;;;;;;;13.45;2.90;;;;;;;;;;5071823;28;20090;-73
2023/03/30 10:46:15;;;;;;;13.20;2.80;;;;;;;;;;5071877;28;20032;-72
2023/03/30 10:48:56;;;;;;;14.25;3.03;;;;;;;;;;5071798;28;20095;-72
2023/03/30 10:51:41;;;;;;;13.25;2.88;;;;;;;;;;5071682;28;20067;-73
2023/03/30 10:54:16;;;;;;;13.13;2.53;;;;;;;;;;5071881;28;20028;-71
2023/03/30 10:56:54;;;;;;;19.40;3.08;;;;;;;;;;5071452;28;20024;-73
2023/03/30 10:59:39;;;;;;;14.05;3.15;;;;;;;;;;5071827;28;20046;-75
2023/03/30 11:02:24;;;;;;;11.45;2.72;;;;;;;;;;5071744;28;20062;-75
2023/03/30 11:04:50;;;;;;;;;;;;;;;;;;5072154;28;20416;-70
2023/03/30 11:07:21;;;;;;;9.93;2.42;;;;;;;;;;5071482;28;19905;-72
2023/03/30 11:09:52;;;;;;;11.10;2.80;;;;;;;;;;5071627;28;20024;-71
2023/03/30 11:12:21;;;;;;;10.10;2.55;;;;;;;;;;5071148;28;20104;-72
2023/03/30 11:14:51;;;;;;;9.35;3.33;;;;;;;;;;5071558;28;20020;-70
2023/03/30 11:17:23;;;;;;;11.75;3.08;;;;;;;;;;5071291;28;20478;-71
2023/03/30 11:19:51;;;;;;;11.75;2.63;;;;;;;;;;5071862;28;20052;-72
2023/03/30 11:22:24;;;;;;;12.65;3.17;;;;;;;;;;5071006;28;20070;-72
2023/03/30 11:24:52;;;;;;;12.80;2.33;;;;;;;;;;5071494;28;20048;-72
2023/03/30 11:27:28;;;;;;;9.60;2.08;;;;;;;;;;5071492;28;20024;-73
2023/03/30 11:29:56;;;;;;;12.85;2.80;;;;;;;;;;5071573;28;20027;-74
2023/03/30 11:32:25;;;;;;;11.80;2.13;;;;;;;;;;5071558;28;20029;-74
2023/03/30 11:34:52;;;;;;;13.80;2.25;;;;;;;;;;5070754;28;20035;-72
2023/03/30 11:37:18;;;;;;;12.32;2.17;;;;;;;;;;5070533;28;20060;-72
2023/03/30 11:39:53;;;;;;;13.27;2.42;;;;;;;;;;5057359;28;20402;-70
2023/03/30 11:42:22;;;;;;;12.38;2.67;;;;;;;;;;5050166;28;20052;-71
2023/03/30 11:44:48;;;;;;;12.82;2.40;;;;;;;;;;5050395;28;20401;-71
2023/03/30 11:47:15;;;;;;;15.50;2.88;;;;;;;;;;5050272;28;20028;-72
2023/03/30 11:49:56;;;;;;;10.25;2.13;;;;;;;;;;5059815;28;20486;-73
2023/03/30 11:52:30;;;;;;;17.65;3.03;;;;;;;;;;5071300;28;20035;-71
2023/03/30 11:55:06;;;;;;;15.20;2.63;;;;;;;;;;5074125;28;20506;-71
2023/03/30 11:57:32;;;;;;;19.00;3.03;;;;;;;;;;5074123;28;20032;-73
2023/03/30 12:00:17;;;;;;;18.02;2.60;;;;;;;;;;5073285;28;20024;-71
2023/03/30 12:02:45;;;;;;;20.15;3.15;;;;;;;;;;5073678;28;20021;-71
2023/03/30 12:05:14;;;;;;;20.40;3.45;;;;;;;;;;5073333;28;20037;-77
2023/03/30 12:07:43;;;;;;;16.45;3.55;;;;;;;;;;5073769;28;20035;-75
2023/03/30 12:10:23;;;;;;;14.68;2.90;;;;;;;;;;5075134;28;20024;-74
2023/03/30 12:12:52;;;;;;;13.98;2.85;;;;;;;;;;5056357;28;20103;-77
2023/03/30 12:15:31;;;;;;;16.30;3.22;;;;;;;;;;5073623;28;20024;-73
2023/03/30 12:18:08;;;;;;;20.60;3.78;;;;;;;;;;5073715;28;20029;-73
2023/03/30 12:20:39;;;;;;;20.23;3.10;;;;;;;;;;5073785;28;20490;-73
2023/03/30 12:23:22;;;;;;;25.10;3.78;;;;;;;;;;5073974;28;20104;-72
2023/03/30 12:26:07;;;;;;;22.52;3.35;;;;;;;;;;5073787;28;20021;-73
2023/03/30 12:28:59;;;;;;;22.23;3.70;;;;;;;;;;5074181;28;20036;-74
2023/03/30 12:31:47;;;;;;;28.85;4.03;;;;;;;;;;5018316;28;20024;-72
2023/03/30 12:34:13;;;;;;;19.80;3.75;;;;;;;;;;5074107;28;20036;-72
2023/03/30 12:36:45;;;;;;;21.00;3.78;;;;;;;;;;5073660;28;20081;-72
2023/03/30 12:39:16;;;;;;;28.88;4.45;;;;;;;;;;5073442;28;20059;-71
2023/03/30 12:41:49;;;;;;;21.67;3.55;;;;;;;;;;5074293;28;20017;-72
2023/03/30 12:44:24;;;;;;;28.88;4.15;;;;;;;;;;5076337;28;20055;-71
2023/03/30 12:47:29;;;;;;;23.88;5.10;;;15.80;99.90;;;;;;5076590;28;20099;-72
2023/03/30 12:50:16;;;;;;;17.17;3.60;;;17.40;99.90;;;;;;5077962;28;20028;-73
2023/03/30 12:52:50;;;;;;;22.58;4.30;;;19.60;99.90;;;;;;5073726;28;20035;-72
2023/03/30 12:55:31;;;;;;;24.98;4.47;;;19.90;99.90;;;;;;5073109;28;20082;-71
2023/03/30 12:58:02;;;;;;;20.13;5.07;;;20.00;99.90;;;;;;5072942;28;20099;-71
2023/03/30 13:00:33;;;;;;;20.60;3.88;;;;;;;;;;5072929;28;20016;-73
2023/03/30 13:03:04;;;;;;;20.25;3.95;;;;;;;;;;5072520;28;20021;-71
2023/03/30 13:05:53;;;;;;;17.55;3.95;;;;;;;;;;5073386;28;20047;-73
2023/03/30 13:08:20;;;;;;;20.70;3.83;;;;;;;;;;5047751;28;20037;-73
2023/03/30 13:10:46;;;;;;;21.05;3.65;;;;;;;;;;5067687;28;20073;-74
2023/03/30 13:13:22;;;;;;;21.92;3.45;;;;;;;;;;5065608;28;20025;-74
2023/03/30 13:15:51;;;;;;;23.02;4.03;;;;;;;;;;5059557;28;20044;-72
2023/03/30 13:18:17;;;;;;;19.13;3.63;;;;;;;;;;5058136;28;20033;-73
2023/03/30 13:20:46;;;;;;;21.65;3.63;;;;;;;;;;5063484;28;20025;-72
2023/03/30 13:23:11;;;;;;;20.20;3.83;;;;;;;;;;5063668;28;20036;-72
2023/03/30 13:25:39;;;;;;;18.52;3.60;;;;;;;;;;5060987;28;20029;-72
2023/03/30 13:28:25;;;;;;;18.17;3.58;;;;;;;;;;5063891;28;20085;-73
2023/03/30 13:30:52;;;;;;;18.20;2.97;;;;;;;;;;5060662;28;20529;-72
2023/03/30 13:33:19;;;;;;;18.27;2.88;;;;;;;;;;5057696;28;20037;-71
2023/03/30 13:35:53;;;;;;;17.90;3.53;;;;;;;;;;5066135;28;20039;-73
2023/03/30 13:38:31;;;;;;;15.50;2.58;;;;;;;;;;5066716;28;20067;-72
2023/03/30 13:41:21;;;;;;;14.20;3.15;;;;;;;;;;5060289;28;20037;-72
2023/03/30 13:43:50;;;;;;;17.35;3.00;;;;;;;;;;5063010;28;20032;-73
2023/03/30 13:46:24;;;;;;;13.57;2.97;;;;;;;;;;5063714;28;20028;-74
2023/03/30 13:48:50;;;;;;;11.93;2.63;;;;;;;;;;5061363;28;20028;-72
2023/03/30 13:51:18;;;;;;;13.73;2.83;;;;;;;;;;5063065;28;20024;-73
2023/03/30 13:53:50;;;;;;;12.98;2.85;;;;;;;;;;5062328;28;20502;-72
2023/03/30 13:56:16;;;;;;;17.42;2.25;;;;;;;;;;5063337;28;20304;-72
2023/03/30 13:58:45;;;;;;;15.02;2.05;;;;;;;;;;5056875;28;20032;-71
2023/03/30 14:01:12;;;;;;;14.38;2.25;;;;;;;;;;5061184;28;20082;-71
2023/03/30 14:03:59;;;;;;;13.25;2.53;;;;;;;;;;5059493;28;20104;-71
2023/03/30 14:06:27;;;;;;;12.70;2.85;;;;;;;;;;5051345;28;20028;-72
2023/03/30 14:09:05;;;;;;;11.05;2.55;;;;;;;;;;5050897;28;20032;-72
2023/03/30 14:11:33;;;;;;;16.80;3.28;;;;;;;;;;5050429;28;20473;-72
2023/03/30 14:14:01;;;;;;;14.00;2.05;;;;;;;;;;5054028;28;20036;-71
2023/03/30 14:16:31;;;;;;;16.55;2.33;;;;;;;;;;5069554;28;20056;-71
2023/03/30 14:19:07;;;;;;;15.80;2.88;;;;;;;;;;5070900;28;20028;-71
2023/03/30 14:21:35;;;;;;;15.43;2.83;;;;;;;;;;5071155;28;20021;-72
2023/03/30 14:24:02;;;;;;;17.70;3.55;;;;;;;;;;5070769;28;20078;-72
2023/03/30 14:26:29;;;;;;;13.07;2.13;;;;;;;;;;5070568;28;20024;-74
2023/03/30 14:29:01;;;;;;;15.50;2.42;;;;;;;;;;5070395;28;20021;-72
2023/03/30 14:31:36;;;;;;;19.27;2.72;;;;;;;;;;5071078;28;20504;-73
2023/03/30 14:34:02;;;;;;;13.85;2.38;;;;;;;;;;5070795;28;20122;-72